Natchez Express — WDF9419 — position and weather

sailwx.info

Track history (hours):
 
Tides and Currents Weather Stations Pressure Air Temp Water Temp Dewpoint Dewpoint Depression Visibility Wind Speed Wind Dir Waves Ship Positions

Natchez Express

Owner: Genesis Marine, LLC, Houston, TX. More information available from US FCC via Universal Licensing System and Coast Guard Vessel Documentation Center.

Last reported at 2018-Jan-21 20:25 UTC. Time now 2018-Jan-22 18:39 UTC.
Position N 30°03' W 093°44'.

Length 26 m; draft 3 m.

Type: Other ship. MMSI: 367504960.

Date/timePositionNaut miles runAvg speedWind from/ knotsBaromVisibWave heightAir tempDewpointWater temp
2018-Jan-21 20:25N 30°03' W 093°44'3 5.7
2018-Jan-21 19:56N 30°04' W 093°41'3 6.1
2018-Jan-21 19:31N 30°04' W 093°38'3 5.2
2018-Jan-21 19:01N 30°04' W 093°35'2 4.9
2018-Jan-21 18:30N 30°04' W 093°32'2 4.5
2018-Jan-21 18:00N 30°04' W 093°29'2 3.1
2018-Jan-21 17:31N 30°04' W 093°27'2 4.7
2018-Jan-21 17:00N 30°04' W 093°24'1 2.8
2018-Jan-21 16:31N 30°04' W 093°23'2 3.4
2018-Jan-21 16:00N 30°04' W 093°21'1 1.9
2018-Jan-21 15:31N 30°05' W 093°20'0 0.2
2018-Jan-21 15:01N 30°05' W 093°20'1 1.6
2018-Jan-21 14:31N 30°05' W 093°20'2 3.0
2018-Jan-21 14:00N 30°06' W 093°19'0 0.0
2018-Jan-21 13:29N 30°06' W 093°19'0 0.0
2018-Jan-21 13:01N 30°06' W 093°19'0 0.0
2018-Jan-21 12:31N 30°06' W 093°19'0 0.0
2018-Jan-21 12:01N 30°06' W 093°19'0 0.0
2018-Jan-21 11:30N 30°06' W 093°19'0 0.0
2018-Jan-21 11:01N 30°06' W 093°19'0 0.0
2018-Jan-21 10:31N 30°06' W 093°19'0 0.0
2018-Jan-21 10:01N 30°06' W 093°19'0 0.0
2018-Jan-21 09:31N 30°06' W 093°19'0 0.0
2018-Jan-21 09:01N 30°06' W 093°19'0 0.0
2018-Jan-21 08:31N 30°06' W 093°19'0 0.0
2018-Jan-21 08:01N 30°06' W 093°19'0 0.0
2018-Jan-21 07:31N 30°06' W 093°19'0 0.0
2018-Jan-21 07:00N 30°06' W 093°19'0 0.2
2018-Jan-21 06:30N 30°06' W 093°18'0 0.1
2018-Jan-21 06:01N 30°06' W 093°18'0 0.0
2018-Jan-21 05:30N 30°06' W 093°18'0 0.0
2018-Jan-21 05:01N 30°06' W 093°18'0 0.0
2018-Jan-21 04:31N 30°06' W 093°18'0 0.0
2018-Jan-21 04:01N 30°06' W 093°18'0 0.0
2018-Jan-21 03:31N 30°06' W 093°18'0 0.0
2018-Jan-21 03:00N 30°06' W 093°18'0 0.0
2018-Jan-21 02:30N 30°06' W 093°18'0 0.0
2018-Jan-21 02:01N 30°06' W 093°18'0 0.0
2018-Jan-21 01:31N 30°06' W 093°18'0 0.0
2018-Jan-21 01:01N 30°06' W 093°18'0 0.0
2018-Jan-21 00:31N 30°06' W 093°18'0 0.0
2018-Jan-21 00:00N 30°06' W 093°18'0 0.0
2018-Jan-20 23:31N 30°06' W 093°18'0 0.2
2018-Jan-20 23:01N 30°06' W 093°19'0 0.0
2018-Jan-20 22:30N 30°06' W 093°19'0 0.0
2018-Jan-20 22:01N 30°06' W 093°19'0 0.1
2018-Jan-20 21:31N 30°06' W 093°19'1 2.8
2018-Jan-20 21:01N 30°05' W 093°17'2 4.6
2018-Jan-20 20:31N 30°03' W 093°16'2 4.3
2018-Jan-20 20:01N 30°02' W 093°14'2 4.6
2018-Jan-20 19:31N 29°60' W 093°13'3 5.2
2018-Jan-20 19:00N 29°58' W 093°11'2 4.8
2018-Jan-20 18:31N 29°56' W 093°09'2 4.8
2018-Jan-20 18:00N 29°56' W 093°06'2 4.7
2018-Jan-20 17:29N 29°56' W 093°03'38 4.6
2018-Jan-20 09:04N 29°50' W 092°20'0 4.8
2018-Jan-20 09:00N 29°50' W 092°19'2 4.5
2018-Jan-20 08:30N 29°49' W 092°17'2 3.9
2018-Jan-20 08:01N 29°48' W 092°15'2 4.1
2018-Jan-20 07:30N 29°47' W 092°13'1 2.0
2018-Jan-20 07:01N 29°47' W 092°12'1 1.2
2018-Jan-20 06:31N 29°47' W 092°11'0 0.1
2018-Jan-20 06:01N 29°47' W 092°11'0 0.1
2018-Jan-20 05:29N 29°47' W 092°11'0 0.2
2018-Jan-20 05:01N 29°47' W 092°11'1 1.8
2018-Jan-20 04:30N 29°47' W 092°10'1 2.3
2018-Jan-20 04:00N 29°47' W 092°09'2 3.5
2018-Jan-20 03:31N 29°47' W 092°07'2 4.3
2018-Jan-20 03:00N 29°48' W 092°05'3 5.1
2018-Jan-20 02:30N 29°49' W 092°02'3 5.0
2018-Jan-20 01:56N 29°50' W 091°59'3 5.3
2018-Jan-20 01:19N 29°51' W 091°55'59 4.5
2018-Jan-19 12:22N 29°32' W 090°51'2 5.7
2018-Jan-19 12:01N 29°32' W 090°49'3 5.2
2018-Jan-19 11:30N 29°32' W 090°46'2 4.5
2018-Jan-19 10:59N 29°34' W 090°44'1 3.1
2018-Jan-19 10:31N 29°35' W 090°43'2 3.3
2018-Jan-19 10:01N 29°37' W 090°42'2 3.4
2018-Jan-19 09:31N 29°36' W 090°41'1 1.3
2018-Jan-19 09:00N 29°36' W 090°40'0 0.0
2018-Jan-19 08:30N 29°36' W 090°40'0 0.5
2018-Jan-19 08:01N 29°36' W 090°40'0 0.0
2018-Jan-19 07:30N 29°36' W 090°40'2 3.6
2018-Jan-19 07:01N 29°35' W 090°38'2 3.7
2018-Jan-19 06:31N 29°35' W 090°36'2 4.0
2018-Jan-19 06:00N 29°34' W 090°34'2 4.5
2018-Jan-19 05:30N 29°34' W 090°31'3 4.8
2018-Jan-19 04:58N 29°34' W 090°29'  
2018-Jan-12 07:22N 29°56' W 092°60'2 4.4
2018-Jan-12 07:01N 29°56' W 093°01'2 4.4
2018-Jan-12 06:30N 29°56' W 093°04'2 4.6
2018-Jan-12 06:00N 29°56' W 093°07'2 4.8
2018-Jan-12 05:31N 29°56' W 093°09'2 4.3
2018-Jan-12 05:01N 29°58' W 093°11'2 4.8
2018-Jan-12 04:30N 29°59' W 093°13'2 4.3
2018-Jan-12 04:00N 30°01' W 093°14'2 4.3
2018-Jan-12 03:30N 30°03' W 093°16'2 4.3
2018-Jan-12 03:01N 30°05' W 093°17'1 1.9
2018-Jan-12 02:31N 30°05' W 093°18'1 1.3
2018-Jan-12 02:01N 30°06' W 093°18'0 0.0
2018-Jan-12 01:31N 30°06' W 093°18'0 0.1
2018-Jan-12 01:01N 30°06' W 093°18'0 1.0
2018-Jan-12 00:31N 30°06' W 093°19'1 1.8
2018-Jan-12 00:01N 30°06' W 093°19'1 2.9
2018-Jan-11 23:31N 30°04' W 093°20'1 2.8
2018-Jan-11 23:01N 30°04' W 093°22'1 3.0
2018-Jan-11 22:30N 30°04' W 093°23'2 3.5
2018-Jan-11 21:59N 30°04' W 093°25'2 3.5
2018-Jan-11 21:31N 30°04' W 093°27'1 2.2
2018-Jan-11 21:01N 30°04' W 093°29'1 1.7
2018-Jan-11 20:30N 30°04' W 093°28'  
Track history (hours):
 
Tides and Currents Weather Stations Pressure Air Temp Water Temp Dewpoint Dewpoint Depression Visibility Wind Speed Wind Dir Waves Ship Positions

Natchez Express

Owner: Genesis Marine, LLC, Houston, TX. More information available from US FCC via Universal Licensing System and Coast Guard Vessel Documentation Center.

Last reported at 2018-Jan-21 20:25 UTC. Time now 2018-Jan-22 18:39 UTC.
Position N 30°03' W 093°44'.

Length 26 m; draft 3 m.

Type: Other ship. MMSI: 367504960.

Date/timePositionNaut miles runAvg speedWind from/ knotsBaromVisibWave heightAir tempDewpointWater temp
2018-Jan-21 20:25N 30°03' W 093°44'3 5.7
2018-Jan-21 19:56N 30°04' W 093°41'3 6.1
2018-Jan-21 19:31N 30°04' W 093°38'3 5.2
2018-Jan-21 19:01N 30°04' W 093°35'2 4.9
2018-Jan-21 18:30N 30°04' W 093°32'2 4.5
2018-Jan-21 18:00N 30°04' W 093°29'2 3.1
2018-Jan-21 17:31N 30°04' W 093°27'2 4.7
2018-Jan-21 17:00N 30°04' W 093°24'1 2.8
2018-Jan-21 16:31N 30°04' W 093°23'2 3.4
2018-Jan-21 16:00N 30°04' W 093°21'1 1.9
2018-Jan-21 15:31N 30°05' W 093°20'0 0.2
2018-Jan-21 15:01N 30°05' W 093°20'1 1.6
2018-Jan-21 14:31N 30°05' W 093°20'2 3.0
2018-Jan-21 14:00N 30°06' W 093°19'0 0.0
2018-Jan-21 13:29N 30°06' W 093°19'0 0.0
2018-Jan-21 13:01N 30°06' W 093°19'0 0.0
2018-Jan-21 12:31N 30°06' W 093°19'0 0.0
2018-Jan-21 12:01N 30°06' W 093°19'0 0.0
2018-Jan-21 11:30N 30°06' W 093°19'0 0.0
2018-Jan-21 11:01N 30°06' W 093°19'0 0.0
2018-Jan-21 10:31N 30°06' W 093°19'0 0.0
2018-Jan-21 10:01N 30°06' W 093°19'0 0.0
2018-Jan-21 09:31N 30°06' W 093°19'0 0.0
2018-Jan-21 09:01N 30°06' W 093°19'0 0.0
2018-Jan-21 08:31N 30°06' W 093°19'0 0.0
2018-Jan-21 08:01N 30°06' W 093°19'0 0.0
2018-Jan-21 07:31N 30°06' W 093°19'0 0.0
2018-Jan-21 07:00N 30°06' W 093°19'0 0.2
2018-Jan-21 06:30N 30°06' W 093°18'0 0.1
2018-Jan-21 06:01N 30°06' W 093°18'0 0.0
2018-Jan-21 05:30N 30°06' W 093°18'0 0.0
2018-Jan-21 05:01N 30°06' W 093°18'0 0.0
2018-Jan-21 04:31N 30°06' W 093°18'0 0.0
2018-Jan-21 04:01N 30°06' W 093°18'0 0.0
2018-Jan-21 03:31N 30°06' W 093°18'0 0.0
2018-Jan-21 03:00N 30°06' W 093°18'0 0.0
2018-Jan-21 02:30N 30°06' W 093°18'0 0.0
2018-Jan-21 02:01N 30°06' W 093°18'0 0.0
2018-Jan-21 01:31N 30°06' W 093°18'0 0.0
2018-Jan-21 01:01N 30°06' W 093°18'0 0.0
2018-Jan-21 00:31N 30°06' W 093°18'0 0.0
2018-Jan-21 00:00N 30°06' W 093°18'0 0.0
2018-Jan-20 23:31N 30°06' W 093°18'0 0.2
2018-Jan-20 23:01N 30°06' W 093°19'0 0.0
2018-Jan-20 22:30N 30°06' W 093°19'0 0.0
2018-Jan-20 22:01N 30°06' W 093°19'0 0.1
2018-Jan-20 21:31N 30°06' W 093°19'1 2.8
2018-Jan-20 21:01N 30°05' W 093°17'2 4.6
2018-Jan-20 20:31N 30°03' W 093°16'2 4.3
2018-Jan-20 20:01N 30°02' W 093°14'2 4.6
2018-Jan-20 19:31N 29°60' W 093°13'3 5.2
2018-Jan-20 19:00N 29°58' W 093°11'2 4.8
2018-Jan-20 18:31N 29°56' W 093°09'2 4.8
2018-Jan-20 18:00N 29°56' W 093°06'2 4.7
2018-Jan-20 17:29N 29°56' W 093°03'38 4.6
2018-Jan-20 09:04N 29°50' W 092°20'0 4.8
2018-Jan-20 09:00N 29°50' W 092°19'2 4.5
2018-Jan-20 08:30N 29°49' W 092°17'2 3.9
2018-Jan-20 08:01N 29°48' W 092°15'2 4.1
2018-Jan-20 07:30N 29°47' W 092°13'1 2.0
2018-Jan-20 07:01N 29°47' W 092°12'1 1.2
2018-Jan-20 06:31N 29°47' W 092°11'0 0.1
2018-Jan-20 06:01N 29°47' W 092°11'0 0.1
2018-Jan-20 05:29N 29°47' W 092°11'0 0.2
2018-Jan-20 05:01N 29°47' W 092°11'1 1.8
2018-Jan-20 04:30N 29°47' W 092°10'1 2.3
2018-Jan-20 04:00N 29°47' W 092°09'2 3.5
2018-Jan-20 03:31N 29°47' W 092°07'2 4.3
2018-Jan-20 03:00N 29°48' W 092°05'3 5.1
2018-Jan-20 02:30N 29°49' W 092°02'3 5.0
2018-Jan-20 01:56N 29°50' W 091°59'3 5.3
2018-Jan-20 01:19N 29°51' W 091°55'59 4.5
2018-Jan-19 12:22N 29°32' W 090°51'2 5.7
2018-Jan-19 12:01N 29°32' W 090°49'3 5.2
2018-Jan-19 11:30N 29°32' W 090°46'2 4.5
2018-Jan-19 10:59N 29°34' W 090°44'1 3.1
2018-Jan-19 10:31N 29°35' W 090°43'2 3.3
2018-Jan-19 10:01N 29°37' W 090°42'2 3.4
2018-Jan-19 09:31N 29°36' W 090°41'1 1.3
2018-Jan-19 09:00N 29°36' W 090°40'0 0.0
2018-Jan-19 08:30N 29°36' W 090°40'0 0.5
2018-Jan-19 08:01N 29°36' W 090°40'0 0.0
2018-Jan-19 07:30N 29°36' W 090°40'2 3.6
2018-Jan-19 07:01N 29°35' W 090°38'2 3.7
2018-Jan-19 06:31N 29°35' W 090°36'2 4.0
2018-Jan-19 06:00N 29°34' W 090°34'2 4.5
2018-Jan-19 05:30N 29°34' W 090°31'3 4.8
2018-Jan-19 04:58N 29°34' W 090°29'  
2018-Jan-12 07:22N 29°56' W 092°60'2 4.4
2018-Jan-12 07:01N 29°56' W 093°01'2 4.4
2018-Jan-12 06:30N 29°56' W 093°04'2 4.6
2018-Jan-12 06:00N 29°56' W 093°07'2 4.8
2018-Jan-12 05:31N 29°56' W 093°09'2 4.3
2018-Jan-12 05:01N 29°58' W 093°11'2 4.8
2018-Jan-12 04:30N 29°59' W 093°13'2 4.3
2018-Jan-12 04:00N 30°01' W 093°14'2 4.3
2018-Jan-12 03:30N 30°03' W 093°16'2 4.3
2018-Jan-12 03:01N 30°05' W 093°17'1 1.9
2018-Jan-12 02:31N 30°05' W 093°18'1 1.3
2018-Jan-12 02:01N 30°06' W 093°18'0 0.0
2018-Jan-12 01:31N 30°06' W 093°18'0 0.1
2018-Jan-12 01:01N 30°06' W 093°18'0 1.0
2018-Jan-12 00:31N 30°06' W 093°19'1 1.8
2018-Jan-12 00:01N 30°06' W 093°19'1 2.9
2018-Jan-11 23:31N 30°04' W 093°20'1 2.8
2018-Jan-11 23:01N 30°04' W 093°22'1 3.0
2018-Jan-11 22:30N 30°04' W 093°23'2 3.5
2018-Jan-11 21:59N 30°04' W 093°25'2 3.5
2018-Jan-11 21:31N 30°04' W 093°27'1 2.2
2018-Jan-11 21:01N 30°04' W 093°29'1 1.7
2018-Jan-11 20:30N 30°04' W 093°28'  

Dump ship's entire track history